sensor_id;sensor_type;location;lat;lon;timestamp;temperature;humidity
18317;DHT22;9284;52.298;21.164;2022-08-21T03:17:31;17.40;99.90
18317;DHT22;9284;52.298;21.164;2022-08-21T03:19:59;17.40;99.90
18317;DHT22;9284;52.298;21.164;2022-08-21T03:22:28;17.30;99.90
18317;DHT22;9284;52.298;21.164;2022-08-21T03:24:56;17.30;99.90
18317;DHT22;9284;52.298;21.164;2022-08-21T03:27:25;17.40;99.90
18317;DHT22;9284;52.298;21.164;2022-08-21T03:29:56;17.20;99.90
18317;DHT22;9284;52.298;21.164;2022-08-21T03:32:24;17.20;99.90
18317;DHT22;9284;52.298;21.164;2022-08-21T03:34:54;17.20;99.90
18317;DHT22;9284;52.298;21.164;2022-08-21T03:37:22;17.20;99.90
18317;DHT22;9284;52.298;21.164;2022-08-21T03:39:51;17.20;99.90
18317;DHT22;9284;52.298;21.164;2022-08-21T03:42:19;17.20;99.90
18317;DHT22;9284;52.298;21.164;2022-08-21T03:44:47;17.30;99.90
18317;DHT22;9284;52.298;21.164;2022-08-21T03:47:16;17.20;99.90
18317;DHT22;9284;52.298;21.164;2022-08-21T03:49:44;17.10;99.90
18317;DHT22;9284;52.298;21.164;2022-08-21T03:52:13;17.10;99.90
18317;DHT22;9284;52.298;21.164;2022-08-21T03:54:42;17.20;99.90
18317;DHT22;9284;52.298;21.164;2022-08-21T03:57:11;17.30;99.90
18317;DHT22;9284;52.298;21.164;2022-08-21T03:59:39;17.20;99.90
18317;DHT22;9284;52.298;21.164;2022-08-21T04:02:07;17.10;99.90
18317;DHT22;9284;52.298;21.164;2022-08-21T04:04:35;17.20;99.90
18317;DHT22;9284;52.298;21.164;2022-08-21T04:07:04;17.30;99.90
18317;DHT22;9284;52.298;21.164;2022-08-21T04:09:33;17.30;99.90
18317;DHT22;9284;52.298;21.164;2022-08-21T04:12:03;17.40;99.90
18317;DHT22;9284;52.298;21.164;2022-08-21T04:14:32;17.40;99.90
18317;DHT22;9284;52.298;21.164;2022-08-21T04:17:00;17.40;88.30
18317;DHT22;9284;52.298;21.164;2022-08-21T04:19:28;17.50;60.30
18317;DHT22;9284;52.298;21.164;2022-08-21T04:21:57;17.70;41.80
18317;DHT22;9284;52.298;21.164;2022-08-21T04:24:26;17.50;13.00
18317;DHT22;9284;52.298;21.164;2022-08-21T04:26:57;17.60;1.00
18317;DHT22;9284;52.298;21.164;2022-08-21T04:29:25;17.70;1.00
18317;DHT22;9284;52.298;21.164;2022-08-21T04:31:53;17.80;1.00
18317;DHT22;9284;52.298;21.164;2022-08-21T04:34:21;17.80;1.00
18317;DHT22;9284;52.298;21.164;2022-08-21T04:36:49;17.80;1.00
18317;DHT22;9284;52.298;21.164;2022-08-21T04:39:17;17.90;1.00
18317;DHT22;9284;52.298;21.164;2022-08-21T04:41:45;17.90;1.00
18317;DHT22;9284;52.298;21.164;2022-08-21T04:44:15;17.90;1.00
18317;DHT22;9284;52.298;21.164;2022-08-21T04:46:43;18.00;1.00
18317;DHT22;9284;52.298;21.164;2022-08-21T04:49:11;18.20;1.00
18317;DHT22;9284;52.298;21.164;2022-08-21T04:51:39;18.30;1.00
18317;DHT22;9284;52.298;21.164;2022-08-21T04:54:10;18.50;1.00
18317;DHT22;9284;52.298;21.164;2022-08-21T04:56:43;18.50;99.90
18317;DHT22;9284;52.298;21.164;2022-08-21T04:59:18;18.60;99.90
18317;DHT22;9284;52.298;21.164;2022-08-21T05:01:48;18.60;99.90
18317;DHT22;9284;52.298;21.164;2022-08-21T05:04:19;18.70;99.90
18317;DHT22;9284;52.298;21.164;2022-08-21T05:06:50;18.80;99.90
18317;DHT22;9284;52.298;21.164;2022-08-21T05:09:22;18.90;96.40
18317;DHT22;9284;52.298;21.164;2022-08-21T05:11:51;18.90;99.90
18317;DHT22;9284;52.298;21.164;2022-08-21T05:14:21;19.10;90.20
18317;DHT22;9284;52.298;21.164;2022-08-21T05:16:49;19.30;1.00
18317;DHT22;9284;52.298;21.164;2022-08-21T05:19:17;19.20;1.00
18317;DHT22;9284;52.298;21.164;2022-08-21T05:21:46;19.30;1.00
18317;DHT22;9284;52.298;21.164;2022-08-21T05:24:15;19.50;1.00
18317;DHT22;9284;52.298;21.164;2022-08-21T05:26:45;19.50;99.90
18317;DHT22;9284;52.298;21.164;2022-08-21T05:29:14;19.60;1.00
18317;DHT22;9284;52.298;21.164;2022-08-21T05:31:47;19.70;1.00
18317;DHT22;9284;52.298;21.164;2022-08-21T05:34:20;19.80;99.90
18317;DHT22;9284;52.298;21.164;2022-08-21T05:36:49;19.90;99.90
18317;DHT22;9284;52.298;21.164;2022-08-21T05:39:17;20.10;99.90
18317;DHT22;9284;52.298;21.164;2022-08-21T05:41:45;20.20;98.00
18317;DHT22;9284;52.298;21.164;2022-08-21T05:44:14;20.30;99.90
18317;DHT22;9284;52.298;21.164;2022-08-21T05:46:42;20.40;99.90
18317;DHT22;9284;52.298;21.164;2022-08-21T05:49:12;20.50;53.80
18317;DHT22;9284;52.298;21.164;2022-08-21T05:51:41;20.70;1.00
18317;DHT22;9284;52.298;21.164;2022-08-21T05:54:09;21.00;1.00
18317;DHT22;9284;52.298;21.164;2022-08-21T05:56:37;21.40;48.50
18317;DHT22;9284;52.298;21.164;2022-08-21T05:59:05;21.90;1.00
18317;DHT22;9284;52.298;21.164;2022-08-21T06:01:34;22.20;1.00
18317;DHT22;9284;52.298;21.164;2022-08-21T06:04:03;22.40;1.00
18317;DHT22;9284;52.298;21.164;2022-08-21T06:06:32;22.70;99.90
18317;DHT22;9284;52.298;21.164;2022-08-21T06:09:01;23.10;1.00
18317;DHT22;9284;52.298;21.164;2022-08-21T06:11:31;23.20;99.90
18317;DHT22;9284;52.298;21.164;2022-08-21T06:13:59;23.60;1.00
18317;DHT22;9284;52.298;21.164;2022-08-21T06:16:28;24.10;1.00
18317;DHT22;9284;52.298;21.164;2022-08-21T06:18:56;24.20;38.70
18317;DHT22;9284;52.298;21.164;2022-08-21T06:21:28;24.80;99.90
18317;DHT22;9284;52.298;21.164;2022-08-21T06:23:58;24.90;1.00
18317;DHT22;9284;52.298;21.164;2022-08-21T06:26:26;25.60;1.00
18317;DHT22;9284;52.298;21.164;2022-08-21T06:28:56;25.70;99.90
18317;DHT22;9284;52.298;21.164;2022-08-21T06:31:27;26.00;99.90
18317;DHT22;9284;52.298;21.164;2022-08-21T06:33:56;26.40;1.00
18317;DHT22;9284;52.298;21.164;2022-08-21T06:36:24;25.80;1.00
18317;DHT22;9284;52.298;21.164;2022-08-21T06:38:52;26.40;1.00
18317;DHT22;9284;52.298;21.164;2022-08-21T06:41:26;26.50;1.00
18317;DHT22;9284;52.298;21.164;2022-08-21T06:43:56;26.80;99.90
18317;DHT22;9284;52.298;21.164;2022-08-21T06:46:28;26.90;99.90
18317;DHT22;9284;52.298;21.164;2022-08-21T06:48:56;27.10;99.90
18317;DHT22;9284;52.298;21.164;2022-08-21T06:51:25;27.30;99.90
18317;DHT22;9284;52.298;21.164;2022-08-21T06:53:54;27.40;99.90
18317;DHT22;9284;52.298;21.164;2022-08-21T06:56:26;27.80;99.90
18317;DHT22;9284;52.298;21.164;2022-08-21T06:58:54;27.60;99.90
18317;DHT22;9284;52.298;21.164;2022-08-21T07:01:25;27.90;99.90
18317;DHT22;9284;52.298;21.164;2022-08-21T07:03:54;28.20;99.90
18317;DHT22;9284;52.298;21.164;2022-08-21T07:06:23;27.80;99.90
18317;DHT22;9284;52.298;21.164;2022-08-21T07:08:51;28.20;99.90
18317;DHT22;9284;52.298;21.164;2022-08-21T07:11:26;28.50;99.90
18317;DHT22;9284;52.298;21.164;2022-08-21T07:13:54;27.70;99.90
18317;DHT22;9284;52.298;21.164;2022-08-21T07:16:23;28.20;99.90
18317;DHT22;9284;52.298;21.164;2022-08-21T07:18:52;28.10;99.90
18317;DHT22;9284;52.298;21.164;2022-08-21T07:21:20;28.50;99.90
18317;DHT22;9284;52.298;21.164;2022-08-21T07:23:52;28.60;99.90
18317;DHT22;9284;52.298;21.164;2022-08-21T07:26:22;29.00;88.80
18317;DHT22;9284;52.298;21.164;2022-08-21T07:28:52;29.40;90.10
18317;DHT22;9284;52.298;21.164;2022-08-21T07:31:22;29.70;37.50
18317;DHT22;9284;52.298;21.164;2022-08-21T07:33:51;30.00;7.40
18317;DHT22;9284;52.298;21.164;2022-08-21T07:36:20;29.80;24.40
18317;DHT22;9284;52.298;21.164;2022-08-21T07:38:48;29.70;1.00
18317;DHT22;9284;52.298;21.164;2022-08-21T07:41:21;28.70;17.10
18317;DHT22;9284;52.298;21.164;2022-08-21T07:43:51;28.60;39.40
18317;DHT22;9284;52.298;21.164;2022-08-21T07:46:20;28.80;33.50
18317;DHT22;9284;52.298;21.164;2022-08-21T07:48:48;28.50;33.10
18317;DHT22;9284;52.298;21.164;2022-08-21T07:51:22;28.90;19.90
18317;DHT22;9284;52.298;21.164;2022-08-21T07:53:53;29.10;5.20
18317;DHT22;9284;52.298;21.164;2022-08-21T07:56:22;29.60;5.70
18317;DHT22;9284;52.298;21.164;2022-08-21T07:58:56;29.80;1.00
18317;DHT22;9284;52.298;21.164;2022-08-21T08:01:25;30.40;1.00
18317;DHT22;9284;52.298;21.164;2022-08-21T08:03:54;29.70;1.00
18317;DHT22;9284;52.298;21.164;2022-08-21T08:06:23;30.00;1.00
18317;DHT22;9284;52.298;21.164;2022-08-21T08:08:52;30.40;1.00
18317;DHT22;9284;52.298;21.164;2022-08-21T08:11:21;31.00;1.00
18317;DHT22;9284;52.298;21.164;2022-08-21T08:13:51;31.30;1.00
18317;DHT22;9284;52.298;21.164;2022-08-21T08:16:21;30.50;1.00
18317;DHT22;9284;52.298;21.164;2022-08-21T08:18:49;30.10;1.00
18317;DHT22;9284;52.298;21.164;2022-08-21T08:21:18;30.40;1.00
18317;DHT22;9284;52.298;21.164;2022-08-21T08:23:47;30.80;1.00
18317;DHT22;9284;52.298;21.164;2022-08-21T08:26:16;31.00;1.00
18317;DHT22;9284;52.298;21.164;2022-08-21T08:28:44;31.10;1.00
18317;DHT22;9284;52.298;21.164;2022-08-21T08:31:14;31.10;1.00
18317;DHT22;9284;52.298;21.164;2022-08-21T08:33:44;30.10;1.00
18317;DHT22;9284;52.298;21.164;2022-08-21T08:36:14;30.20;1.00
18317;DHT22;9284;52.298;21.164;2022-08-21T08:38:45;31.00;1.00
18317;DHT22;9284;52.298;21.164;2022-08-21T08:41:15;30.70;1.00
18317;DHT22;9284;52.298;21.164;2022-08-21T08:43:49;30.10;1.00
18317;DHT22;9284;52.298;21.164;2022-08-21T08:46:23;30.40;1.00
18317;DHT22;9284;52.298;21.164;2022-08-21T08:48:58;29.70;1.00
18317;DHT22;9284;52.298;21.164;2022-08-21T08:51:35;28.90;1.00
18317;DHT22;9284;52.298;21.164;2022-08-21T08:54:11;28.40;1.00
18317;DHT22;9284;52.298;21.164;2022-08-21T08:56:40;28.00;1.00
18317;DHT22;9284;52.298;21.164;2022-08-21T08:59:15;27.90;1.00
18317;DHT22;9284;52.298;21.164;2022-08-21T09:01:43;27.90;1.00
18317;DHT22;9284;52.298;21.164;2022-08-21T09:04:20;28.20;1.00
18317;DHT22;9284;52.298;21.164;2022-08-21T09:06:58;28.70;1.00
18317;DHT22;9284;52.298;21.164;2022-08-21T09:09:38;28.70;1.00
18317;DHT22;9284;52.298;21.164;2022-08-21T09:12:15;28.80;1.00
18317;DHT22;9284;52.298;21.164;2022-08-21T09:14:54;29.30;1.00
18317;DHT22;9284;52.298;21.164;2022-08-21T09:17:36;29.40;1.00
18317;DHT22;9284;52.298;21.164;2022-08-21T09:20:22;29.40;1.00
18317;DHT22;9284;52.298;21.164;2022-08-21T09:23:04;29.90;1.00
18317;DHT22;9284;52.298;21.164;2022-08-21T09:25:42;29.00;1.00
18317;DHT22;9284;52.298;21.164;2022-08-21T09:28:11;29.70;1.00
18317;DHT22;9284;52.298;21.164;2022-08-21T09:30:42;30.00;1.00
18317;DHT22;9284;52.298;21.164;2022-08-21T09:33:13;29.60;1.00
18317;DHT22;9284;52.298;21.164;2022-08-21T09:35:55;29.20;1.00
18317;DHT22;9284;52.298;21.164;2022-08-21T09:38:28;28.40;1.00
18317;DHT22;9284;52.298;21.164;2022-08-21T09:41:01;28.40;1.00
18317;DHT22;9284;52.298;21.164;2022-08-21T09:43:31;28.40;1.00
18317;DHT22;9284;52.298;21.164;2022-08-21T09:46:06;28.30;1.00
18317;DHT22;9284;52.298;21.164;2022-08-21T09:48:43;28.30;1.00
18317;DHT22;9284;52.298;21.164;2022-08-21T09:51:16;27.80;1.00
18317;DHT22;9284;52.298;21.164;2022-08-21T09:53:48;27.80;1.00
18317;DHT22;9284;52.298;21.164;2022-08-21T09:56:25;27.20;1.00
18317;DHT22;9284;52.298;21.164;2022-08-21T09:59:23;27.20;1.00
18317;DHT22;9284;52.298;21.164;2022-08-21T10:01:53;27.80;1.00
18317;DHT22;9284;52.298;21.164;2022-08-21T10:04:24;27.90;1.00
18317;DHT22;9284;52.298;21.164;2022-08-21T10:07:06;28.10;1.00
18317;DHT22;9284;52.298;21.164;2022-08-21T10:09:34;28.00;1.00
18317;DHT22;9284;52.298;21.164;2022-08-21T10:12:13;27.60;1.00
18317;DHT22;9284;52.298;21.164;2022-08-21T10:14:51;27.60;1.00
18317;DHT22;9284;52.298;21.164;2022-08-21T10:17:26;27.40;1.00
18317;DHT22;9284;52.298;21.164;2022-08-21T10:20:03;27.50;1.00
18317;DHT22;9284;52.298;21.164;2022-08-21T10:22:40;27.50;1.00
18317;DHT22;9284;52.298;21.164;2022-08-21T10:25:17;27.60;1.00
18317;DHT22;9284;52.298;21.164;2022-08-21T10:27:54;27.50;1.00
18317;DHT22;9284;52.298;21.164;2022-08-21T10:30:36;27.50;1.00
18317;DHT22;9284;52.298;21.164;2022-08-21T10:33:18;27.70;1.00
18317;DHT22;9284;52.298;21.164;2022-08-21T10:35:53;28.00;1.00
18317;DHT22;9284;52.298;21.164;2022-08-21T10:42:06;27.70;1.00
18317;DHT22;9284;52.298;21.164;2022-08-21T10:44:45;27.50;1.00
18317;DHT22;9284;52.298;21.164;2022-08-21T10:47:19;27.50;1.00
18317;DHT22;9284;52.298;21.164;2022-08-21T10:49:55;27.50;1.00
18317;DHT22;9284;52.298;21.164;2022-08-21T10:52:36;27.30;1.00
18317;DHT22;9284;52.298;21.164;2022-08-21T10:55:15;27.10;1.00
18317;DHT22;9284;52.298;21.164;2022-08-21T10:57:49;27.50;1.00
18317;DHT22;9284;52.298;21.164;2022-08-21T11:00:20;27.90;1.00
18317;DHT22;9284;52.298;21.164;2022-08-21T11:02:52;28.10;1.00
18317;DHT22;9284;52.298;21.164;2022-08-21T11:05:27;28.50;1.00
18317;DHT22;9284;52.298;21.164;2022-08-21T11:08:02;28.50;1.00
18317;DHT22;9284;52.298;21.164;2022-08-21T11:10:39;28.90;1.00
18317;DHT22;9284;52.298;21.164;2022-08-21T11:13:36;29.10;1.00
18317;DHT22;9284;52.298;21.164;2022-08-21T11:16:10;28.80;1.00
18317;DHT22;9284;52.298;21.164;2022-08-21T11:18:45;28.60;1.00
18317;DHT22;9284;52.298;21.164;2022-08-21T11:21:29;28.50;1.00
18317;DHT22;9284;52.298;21.164;2022-08-21T11:24:06;29.10;1.00
18317;DHT22;9284;52.298;21.164;2022-08-21T11:26:44;28.80;1.00
18317;DHT22;9284;52.298;21.164;2022-08-21T11:29:23;29.20;1.00
18317;DHT22;9284;52.298;21.164;2022-08-21T11:32:07;29.60;1.00
18317;DHT22;9284;52.298;21.164;2022-08-21T11:34:46;29.80;1.00
18317;DHT22;9284;52.298;21.164;2022-08-21T11:37:20;29.80;1.00
18317;DHT22;9284;52.298;21.164;2022-08-21T11:39:58;29.20;1.00
18317;DHT22;9284;52.298;21.164;2022-08-21T11:42:38;29.00;1.00
18317;DHT22;9284;52.298;21.164;2022-08-21T11:45:17;28.70;1.00
18317;DHT22;9284;52.298;21.164;2022-08-21T11:47:56;28.50;1.00
18317;DHT22;9284;52.298;21.164;2022-08-21T11:50:30;28.60;1.00
18317;DHT22;9284;52.298;21.164;2022-08-21T11:53:07;28.40;1.00
18317;DHT22;9284;52.298;21.164;2022-08-21T11:55:41;28.40;1.00
18317;DHT22;9284;52.298;21.164;2022-08-21T11:58:17;28.20;1.00
18317;DHT22;9284;52.298;21.164;2022-08-21T12:00:50;28.40;1.00
18317;DHT22;9284;52.298;21.164;2022-08-21T12:03:26;28.30;1.00
18317;DHT22;9284;52.298;21.164;2022-08-21T12:05:58;28.10;1.00
18317;DHT22;9284;52.298;21.164;2022-08-21T12:08:30;27.80;1.00
18317;DHT22;9284;52.298;21.164;2022-08-21T12:11:02;27.90;1.00
18317;DHT22;9284;52.298;21.164;2022-08-21T12:13:35;27.90;1.00
18317;DHT22;9284;52.298;21.164;2022-08-21T12:16:09;28.30;1.00
18317;DHT22;9284;52.298;21.164;2022-08-21T12:18:39;28.60;1.00
18317;DHT22;9284;52.298;21.164;2022-08-21T12:21:20;28.20;1.00
18317;DHT22;9284;52.298;21.164;2022-08-21T12:24:00;27.70;1.00
18317;DHT22;9284;52.298;21.164;2022-08-21T12:26:30;27.30;1.00
18317;DHT22;9284;52.298;21.164;2022-08-21T12:29:15;27.20;1.00
18317;DHT22;9284;52.298;21.164;2022-08-21T12:31:53;26.90;1.00
18317;DHT22;9284;52.298;21.164;2022-08-21T12:34:24;26.70;1.00
18317;DHT22;9284;52.298;21.164;2022-08-21T12:36:56;26.80;1.00
18317;DHT22;9284;52.298;21.164;2022-08-21T12:39:29;27.00;1.00
18317;DHT22;9284;52.298;21.164;2022-08-21T12:42:00;27.20;1.00
18317;DHT22;9284;52.298;21.164;2022-08-21T12:44:41;27.30;1.00
18317;DHT22;9284;52.298;21.164;2022-08-21T12:47:16;27.40;1.00
18317;DHT22;9284;52.298;21.164;2022-08-21T12:49:52;27.60;1.00
18317;DHT22;9284;52.298;21.164;2022-08-21T12:52:24;27.60;1.00
18317;DHT22;9284;52.298;21.164;2022-08-21T12:54:55;27.60;1.00
18317;DHT22;9284;52.298;21.164;2022-08-21T12:57:26;27.70;1.00
18317;DHT22;9284;52.298;21.164;2022-08-21T12:59:58;27.80;1.00
18317;DHT22;9284;52.298;21.164;2022-08-21T13:02:29;27.90;1.00
18317;DHT22;9284;52.298;21.164;2022-08-21T13:04:58;27.90;1.00
18317;DHT22;9284;52.298;21.164;2022-08-21T13:07:32;28.10;1.00
18317;DHT22;9284;52.298;21.164;2022-08-21T13:10:04;28.10;1.00
18317;DHT22;9284;52.298;21.164;2022-08-21T13:12:35;27.80;1.00
18317;DHT22;9284;52.298;21.164;2022-08-21T13:15:07;27.80;1.00
18317;DHT22;9284;52.298;21.164;2022-08-21T13:17:40;27.90;1.00
18317;DHT22;9284;52.298;21.164;2022-08-21T13:20:18;27.80;1.00
18317;DHT22;9284;52.298;21.164;2022-08-21T13:22:46;27.90;1.00
18317;DHT22;9284;52.298;21.164;2022-08-21T13:25:18;27.90;1.00
18317;DHT22;9284;52.298;21.164;2022-08-21T13:27:59;27.70;1.00
18317;DHT22;9284;52.298;21.164;2022-08-21T13:30:29;27.60;1.00
18317;DHT22;9284;52.298;21.164;2022-08-21T13:32:59;27.60;1.00
18317;DHT22;9284;52.298;21.164;2022-08-21T13:35:47;27.60;1.00
18317;DHT22;9284;52.298;21.164;2022-08-21T13:38:15;27.70;1.00
18317;DHT22;9284;52.298;21.164;2022-08-21T13:40:48;27.60;1.00
18317;DHT22;9284;52.298;21.164;2022-08-21T13:43:19;27.60;1.00
18317;DHT22;9284;52.298;21.164;2022-08-21T13:45:52;27.40;1.00
18317;DHT22;9284;52.298;21.164;2022-08-21T13:48:21;27.40;1.00
18317;DHT22;9284;52.298;21.164;2022-08-21T13:50:52;27.10;1.00
18317;DHT22;9284;52.298;21.164;2022-08-21T13:53:23;27.30;1.00
18317;DHT22;9284;52.298;21.164;2022-08-21T13:55:51;27.30;1.00
18317;DHT22;9284;52.298;21.164;2022-08-21T13:58:27;27.40;1.00
18317;DHT22;9284;52.298;21.164;2022-08-21T14:00:58;27.40;1.00
18317;DHT22;9284;52.298;21.164;2022-08-21T14:03:34;27.40;1.00
18317;DHT22;9284;52.298;21.164;2022-08-21T14:06:11;27.30;1.00
18317;DHT22;9284;52.298;21.164;2022-08-21T14:08:40;27.30;1.00
18317;DHT22;9284;52.298;21.164;2022-08-21T14:11:11;27.10;1.00
18317;DHT22;9284;52.298;21.164;2022-08-21T14:13:42;27.20;1.00
18317;DHT22;9284;52.298;21.164;2022-08-21T14:16:18;27.20;1.00
18317;DHT22;9284;52.298;21.164;2022-08-21T14:18:49;27.20;1.00
18317;DHT22;9284;52.298;21.164;2022-08-21T14:21:29;27.10;1.00
18317;DHT22;9284;52.298;21.164;2022-08-21T14:24:03;27.20;1.00
18317;DHT22;9284;52.298;21.164;2022-08-21T14:26:34;27.10;1.00
18317;DHT22;9284;52.298;21.164;2022-08-21T14:29:09;27.00;1.00
18317;DHT22;9284;52.298;21.164;2022-08-21T14:31:39;27.00;1.00
18317;DHT22;9284;52.298;21.164;2022-08-21T14:34:10;27.10;1.00
18317;DHT22;9284;52.298;21.164;2022-08-21T14:36:47;26.90;1.00
18317;DHT22;9284;52.298;21.164;2022-08-21T14:39:15;26.90;1.00
18317;DHT22;9284;52.298;21.164;2022-08-21T14:41:44;26.90;1.00
18317;DHT22;9284;52.298;21.164;2022-08-21T14:44:16;26.90;1.00
18317;DHT22;9284;52.298;21.164;2022-08-21T14:46:46;26.80;1.00
18317;DHT22;9284;52.298;21.164;2022-08-21T14:49:25;26.70;1.00
18317;DHT22;9284;52.298;21.164;2022-08-21T14:51:55;26.80;1.00
18317;DHT22;9284;52.298;21.164;2022-08-21T14:54:26;26.80;1.00
18317;DHT22;9284;52.298;21.164;2022-08-21T14:56:58;26.70;1.00
18317;DHT22;9284;52.298;21.164;2022-08-21T14:59:27;26.80;1.00
18317;DHT22;9284;52.298;21.164;2022-08-21T15:01:56;26.80;1.00
18317;DHT22;9284;52.298;21.164;2022-08-21T15:04:25;26.80;1.00
18317;DHT22;9284;52.298;21.164;2022-08-21T15:06:53;26.80;1.00
18317;DHT22;9284;52.298;21.164;2022-08-21T15:09:21;26.80;1.00
18317;DHT22;9284;52.298;21.164;2022-08-21T15:11:51;26.80;1.00
18317;DHT22;9284;52.298;21.164;2022-08-21T15:14:21;26.70;1.00
18317;DHT22;9284;52.298;21.164;2022-08-21T15:16:50;26.70;1.00
18317;DHT22;9284;52.298;21.164;2022-08-21T15:19:20;26.60;1.00
18317;DHT22;9284;52.298;21.164;2022-08-21T15:21:48;26.50;1.00
18317;DHT22;9284;52.298;21.164;2022-08-21T15:24:16;26.40;1.00
18317;DHT22;9284;52.298;21.164;2022-08-21T15:26:46;26.30;1.00
18317;DHT22;9284;52.298;21.164;2022-08-21T15:29:15;26.20;1.00
18317;DHT22;9284;52.298;21.164;2022-08-21T15:31:53;26.10;1.00
18317;DHT22;9284;52.298;21.164;2022-08-21T15:34:25;26.00;77.50
18317;DHT22;9284;52.298;21.164;2022-08-21T15:36:54;25.90;84.10
18317;DHT22;9284;52.298;21.164;2022-08-21T15:39:24;25.80;99.90
18317;DHT22;9284;52.298;21.164;2022-08-21T15:41:58;25.70;99.90
18317;DHT22;9284;52.298;21.164;2022-08-21T15:44:34;25.80;99.90
18317;DHT22;9284;52.298;21.164;2022-08-21T15:47:02;25.60;99.90
18317;DHT22;9284;52.298;21.164;2022-08-21T15:49:32;25.60;99.90
18317;DHT22;9284;52.298;21.164;2022-08-21T15:52:00;25.60;99.90
18317;DHT22;9284;52.298;21.164;2022-08-21T15:54:28;25.60;99.90
18317;DHT22;9284;52.298;21.164;2022-08-21T15:56:56;25.60;99.90
18317;DHT22;9284;52.298;21.164;2022-08-21T15:59:25;25.60;99.90
18317;DHT22;9284;52.298;21.164;2022-08-21T16:01:53;25.50;99.90
18317;DHT22;9284;52.298;21.164;2022-08-21T16:04:24;25.50;99.90
18317;DHT22;9284;52.298;21.164;2022-08-21T16:06:54;25.40;99.90
18317;DHT22;9284;52.298;21.164;2022-08-21T16:09:29;25.40;99.90
18317;DHT22;9284;52.298;21.164;2022-08-21T16:11:58;25.40;1.00
18317;DHT22;9284;52.298;21.164;2022-08-21T16:14:28;25.30;1.00
18317;DHT22;9284;52.298;21.164;2022-08-21T16:16:57;25.20;1.00
18317;DHT22;9284;52.298;21.164;2022-08-21T16:19:27;25.10;1.00
18317;DHT22;9284;52.298;21.164;2022-08-21T16:21:58;25.10;55.40
18317;DHT22;9284;52.298;21.164;2022-08-21T16:24:26;24.90;1.00
18317;DHT22;9284;52.298;21.164;2022-08-21T16:26:54;24.80;99.90
18317;DHT22;9284;52.298;21.164;2022-08-21T16:29:24;24.80;99.90
18317;DHT22;9284;52.298;21.164;2022-08-21T16:31:53;24.70;99.90
18317;DHT22;9284;52.298;21.164;2022-08-21T16:34:21;24.60;99.90
18317;DHT22;9284;52.298;21.164;2022-08-21T16:36:49;24.60;99.90
18317;DHT22;9284;52.298;21.164;2022-08-21T16:39:19;24.60;1.00
18317;DHT22;9284;52.298;21.164;2022-08-21T16:41:48;24.50;1.00
18317;DHT22;9284;52.298;21.164;2022-08-21T16:44:16;24.50;1.00
18317;DHT22;9284;52.298;21.164;2022-08-21T16:46:45;24.40;1.00
18317;DHT22;9284;52.298;21.164;2022-08-21T16:49:13;24.30;99.90
18317;DHT22;9284;52.298;21.164;2022-08-21T16:51:42;24.30;99.90
18317;DHT22;9284;52.298;21.164;2022-08-21T16:54:10;24.30;1.00
18317;DHT22;9284;52.298;21.164;2022-08-21T16:56:41;24.20;1.00
18317;DHT22;9284;52.298;21.164;2022-08-21T16:59:13;24.10;99.90
18317;DHT22;9284;52.298;21.164;2022-08-21T17:01:43;24.10;1.00
18317;DHT22;9284;52.298;21.164;2022-08-21T17:04:12;24.00;99.90
18317;DHT22;9284;52.298;21.164;2022-08-21T17:06:40;23.90;1.00
18317;DHT22;9284;52.298;21.164;2022-08-21T17:09:10;23.80;55.80
18317;DHT22;9284;52.298;21.164;2022-08-21T17:11:41;23.80;1.00
18317;DHT22;9284;52.298;21.164;2022-08-21T17:14:12;23.70;99.90
18317;DHT22;9284;52.298;21.164;2022-08-21T17:16:45;23.60;99.90
18317;DHT22;9284;52.298;21.164;2022-08-21T17:19:13;23.40;1.00
18317;DHT22;9284;52.298;21.164;2022-08-21T17:21:42;23.50;1.00
18317;DHT22;9284;52.298;21.164;2022-08-21T17:24:10;23.40;99.90
18317;DHT22;9284;52.298;21.164;2022-08-21T17:26:43;23.30;1.00
18317;DHT22;9284;52.298;21.164;2022-08-21T17:29:12;23.20;99.90
18317;DHT22;9284;52.298;21.164;2022-08-21T17:31:43;22.90;99.90
18317;DHT22;9284;52.298;21.164;2022-08-21T17:34:13;23.00;1.00
18317;DHT22;9284;52.298;21.164;2022-08-21T17:36:41;22.90;4.10
18317;DHT22;9284;52.298;21.164;2022-08-21T17:39:09;22.70;99.90
18317;DHT22;9284;52.298;21.164;2022-08-21T17:41:49;22.70;1.00
18317;DHT22;9284;52.298;21.164;2022-08-21T17:44:23;22.60;1.00
18317;DHT22;9284;52.298;21.164;2022-08-21T17:46:51;22.50;99.90
18317;DHT22;9284;52.298;21.164;2022-08-21T17:49:20;22.30;99.90
18317;DHT22;9284;52.298;21.164;2022-08-21T17:51:48;22.20;1.00
18317;DHT22;9284;52.298;21.164;2022-08-21T17:54:16;22.20;1.00
18317;DHT22;9284;52.298;21.164;2022-08-21T17:56:45;22.10;99.90
18317;DHT22;9284;52.298;21.164;2022-08-21T17:59:14;22.00;99.90
18317;DHT22;9284;52.298;21.164;2022-08-21T18:01:44;21.90;1.00
18317;DHT22;9284;52.298;21.164;2022-08-21T18:04:13;21.80;1.00
18317;DHT22;9284;52.298;21.164;2022-08-21T18:06:42;21.60;1.00
18317;DHT22;9284;52.298;21.164;2022-08-21T18:09:11;21.60;1.00
18317;DHT22;9284;52.298;21.164;2022-08-21T18:11:41;21.50;3.60
18317;DHT22;9284;52.298;21.164;2022-08-21T18:14:10;21.50;99.90
18317;DHT22;9284;52.298;21.164;2022-08-21T18:16:40;21.40;99.90
18317;DHT22;9284;52.298;21.164;2022-08-21T18:19:10;21.30;99.90
18317;DHT22;9284;52.298;21.164;2022-08-21T18:21:42;21.20;99.90
18317;DHT22;9284;52.298;21.164;2022-08-21T18:24:10;21.10;1.00
18317;DHT22;9284;52.298;21.164;2022-08-21T18:26:39;21.10;1.00
18317;DHT22;9284;52.298;21.164;2022-08-21T18:29:10;21.00;1.00
18317;DHT22;9284;52.298;21.164;2022-08-21T18:31:40;21.00;1.00
18317;DHT22;9284;52.298;21.164;2022-08-21T18:34:25;20.90;1.00
18317;DHT22;9284;52.298;21.164;2022-08-21T18:36:54;20.80;1.00
18317;DHT22;9284;52.298;21.164;2022-08-21T18:39:23;20.80;1.00
18317;DHT22;9284;52.298;21.164;2022-08-21T18:42:04;20.70;1.00
18317;DHT22;9284;52.298;21.164;2022-08-21T18:44:35;20.70;34.00
18317;DHT22;9284;52.298;21.164;2022-08-21T18:47:07;20.60;99.90
18317;DHT22;9284;52.298;21.164;2022-08-21T18:49:38;20.50;99.90
18317;DHT22;9284;52.298;21.164;2022-08-21T18:52:07;20.50;99.90
18317;DHT22;9284;52.298;21.164;2022-08-21T18:54:35;20.60;99.90
18317;DHT22;9284;52.298;21.164;2022-08-21T18:57:09;20.40;99.90
18317;DHT22;9284;52.298;21.164;2022-08-21T18:59:38;20.40;99.90
18317;DHT22;9284;52.298;21.164;2022-08-21T19:02:10;20.30;99.90
18317;DHT22;9284;52.298;21.164;2022-08-21T19:04:38;20.30;99.90
18317;DHT22;9284;52.298;21.164;2022-08-21T19:07:26;20.20;99.90
18317;DHT22;9284;52.298;21.164;2022-08-21T19:09:54;20.20;1.00
18317;DHT22;9284;52.298;21.164;2022-08-21T19:12:43;20.20;1.00
18317;DHT22;9284;52.298;21.164;2022-08-21T19:15:15;20.00;1.00
18317;DHT22;9284;52.298;21.164;2022-08-21T19:17:47;20.00;1.00
18317;DHT22;9284;52.298;21.164;2022-08-21T19:20:20;20.00;1.00
18317;DHT22;9284;52.298;21.164;2022-08-21T19:22:52;19.90;1.00
18317;DHT22;9284;52.298;21.164;2022-08-21T19:25:29;19.90;1.00
18317;DHT22;9284;52.298;21.164;2022-08-21T19:28:01;19.80;1.00